Tiempo atmosférico en la estación meteorológica de Alcala de Henares, Madrid (605 m.)



Fecha
DESCASC
Temp. máxima en grados centígrados (hora)
DESCASC
Temp. mínima en grados centígrados (hora)
DESCASC
Temp. media en grados centígrados
DESCASC
Racha de viento máxima en m/sg (hora)
DESCASC
Velocidad máxima media en intervalos de 10 minutos(hora)
DESCASC
Precipitaciones diarias en mm
DESCASC
Precipitaciones de 00:00 a 06:00 en mm
DESCASC
Precipitaciones de 06:00 a 12:00 en mm
DESCASC
Precipitaciones de 12:00 a 18:00 en mm
DESCASC
Precipitaciones de 18:00 a 24:00 en mm
DESCASC
23-06-2019 35.2 (17:20) 18.1 (01:30) 26.7 12.22 (03:40) 7.22 (04:20) 0 0 0 0 0
22-06-2019 32.8 (18:40) 13.8 (06:50) 23.3 11.67 (18:20) 7.5 (00:40) 0 0 0 0 0
21-06-2019 30.8 (17:00) 15.5 (07:00) 23.1 10.28 (17:00) 5.83 (03:30) 0 0 0 0 0
20-06-2019 30.1 (17:30) 13 (00:00) 21.6 11.11 (19:00) 6.11 (19:00) 0 0 0 0 0
19-06-2019 -- (--) -- (--) -- -- (--) -- (--) -- -- -- -- 0
18-06-2019 31.8 (17:00) 15.6 (00:00) 23.7 12.5 (14:40) 7.78 (16:10) 0 0 0 0 0
17-06-2019 32.6 (16:40) 12 (00:00) 22.3 11.39 (17:10) 6.11 (17:30) 0 0 0 0 0
16-06-2019 30.9 (16:40) 11.2 (00:00) 21 9.44 (16:00) 4.44 (19:20) 0 0 0 0 0
15-06-2019 27 (19:10) 8.3 (00:00) 17.7 8.61 (00:10) 5.28 (00:10) 0 0 0 0 0
14-06-2019 26.3 (15:30) 11.8 (00:00) 19 14.17 (16:20) 8.06 (18:30) 0 0 0 0 0
13-06-2019 29.7 (17:20) 12.1 (00:00) 20.9 13.61 (04:30) 7.78 (04:20) 0 0 0 0 0
12-06-2019 26 (18:20) 5.1 (00:00) 15.5 10.28 (16:50) 6.11 (18:40) 0 0 0 0 0
11-06-2019 21.8 (18:00) 11.6 (00:00) 16.7 11.94 (12:40) 7.5 (12:40) 0 0 0 0 0
10-06-2019 27.5 (17:30) 11.2 (00:00) 19.3 9.44 (18:50) 5.83 (20:20) 0 0 0 0 0
09-06-2019 28.1 (16:10) 10.5 (00:00) 19.3 11.94 (18:10) 6.67 (16:30) 0 0 0 0 0
08-06-2019 29.4 (16:50) 8.7 (00:00) 19 12.5 (18:00) 7.5 (20:40) 0 0 0 0 0
07-06-2019 23 (18:30) 10.5 (00:00) 16.8 13.33 (05:00) 8.89 (05:00) 2.6 2.4 0.2 0 0
06-06-2019 25.5 (17:40) 5.2 (00:00) 15.3 15 (17:50) 8.61 (17:30) 0 0 0 0 0
05-06-2019 22.5 (18:40) 12.2 (00:00) 17.3 10.28 (12:20) 6.39 (12:20) 0 0 0 0 0
04-06-2019 30.3 (15:40) 12.3 (00:00) 21.3 15 (18:00) 8.33 (16:00) 0 0 0 0 0
03-06-2019 34.1 (16:50) 15.8 (00:00) 24.9 14.17 (16:10) 8.33 (16:10) 0 0 0 0 0
02-06-2019 35.3 (17:30) 14 (00:00) 24.6 9.72 (04:00) 5.83 (03:50) 0 0 0 0 0
01-06-2019 34.8 (18:40) 11.9 (00:00) 23.3 8.61 (12:20) 3.61 (14:10) 0 0 0 0 0
31-05-2019 33.3 (20:00) 11.2 (00:00) 22.2 6.11 (14:30) 3.89 (00:10) 0 0 0 0 0
30-05-2019 31.3 (17:00) 11.1 (00:00) 21.2 8.61 (17:50) 4.17 (18:50) 0 0 0 0 0
29-05-2019 27.6 (18:30) 9.5 (00:00) 18.6 11.94 (10:40) 8.33 (10:40) 0 0 0 0 0
28-05-2019 26.8 (17:10) 11.1 (00:00) 18.9 12.5 (21:50) 8.33 (22:00) 0 0 0 0 0
27-05-2019 28.7 (16:30) 9.5 (00:00) 19.1 9.44 (16:30) 5.56 (22:00) 0 0 0 0 0

Gráficas

Temp. máximas Temp. mínimas Temp. medias Precipitaciones Rachas de viento máximas Velocidades máximas media en intervalos de 10 minutos

Datos horarios

Fecha y hora oficial Temperatura (ºC) Velocidad del viento (km/h) Dirección del viento Racha (km/h) Dirección de racha Precipitación (mm) Presión (hPa) Tendencia (hPa) Humedad (%)
2019-06-25 23:00:00 28 2 Sudeste 6 Sudeste 0 -- -- 35
2019-06-25 22:00:00 31.9 4 Sur 17 Sur 0 -- -- 30
2019-06-25 21:00:00 34.4 10 Sudoeste 28 Sur 0 -- -- 26
2019-06-25 20:00:00 35.7 13 Sudoeste 31 Sur 0 -- -- 24
2019-06-25 19:00:00 35.9 17 Sur 41 Sur 0 -- -- 23
2019-06-25 18:00:00 36.5 15 Sudoeste 34 Sur 0 -- -- 22
2019-06-25 17:00:00 36.3 14 Sur 33 Sudoeste 0 -- -- 22
2019-06-25 16:00:00 35.3 12 Sudoeste 33 Sur 0 -- -- 25
2019-06-25 15:00:00 33.2 10 Oeste 27 Sudoeste 0 -- -- 30
2019-06-25 14:00:00 32.2 14 Oeste 27 Sudoeste 0 -- -- 33
2019-06-25 13:00:00 31.2 10 Sudoeste 20 Sur 0 -- -- 33
2019-06-25 12:00:00 29 6 Oeste 14 Sudoeste 0 -- -- 40
2019-06-25 11:00:00 26.7 3 Sur 8 Sudoeste 0 -- -- 44
2019-06-25 10:00:00 23.6 4 Nordeste 10 Este 0 -- -- 51
2019-06-25 09:00:00 20.5 6 Nordeste 11 Nordeste 0 -- -- 59
2019-06-25 08:00:00 17.9 6 Nordeste 8 Nordeste 0 -- -- 65
2019-06-25 07:00:00 16.6 2 Sur 4 Sur 0 -- -- 66
2019-06-25 06:00:00 17.6 0 Calma 5 Este 0 -- -- 63
2019-06-25 05:00:00 19 0 Calma 8 Nordeste 0 -- -- 61
2019-06-25 04:00:00 20.5 5 Nordeste 10 Nordeste 0 -- -- 55
2019-06-25 03:00:00 20.5 4 Nordeste 9 Este 0 -- -- 54
2019-06-25 02:00:00 20.3 3 Este 5 Este 0 -- -- 54
2019-06-25 01:00:00 21.8 0 Calma 5 Sudeste 0 -- -- 49
2019-06-25 00:00:00 24.6 0 Calma 19 Noroeste 0 -- -- 45
2019-06-24 23:00:00 27.9 4 Sudoeste 15 Sudoeste 0 -- -- 34
2019-06-24 22:00:00 29.8 12 Oeste 21 Sudoeste 0 -- -- 30
2019-06-24 21:00:00 31.1 9 Sudoeste 26 Sudoeste 0 -- -- 27
2019-06-24 20:00:00 31.8 15 Oeste 24 Oeste 0 -- -- 27
2019-06-24 19:00:00 32 12 Oeste 27 Oeste 0 -- -- 27
2019-06-24 18:00:00 32.7 17 Oeste 31 Oeste 0 -- -- 27
2019-06-24 17:00:00 33.3 15 Sudoeste 32 Sudoeste 0 -- -- 26
2019-06-24 16:00:00 32.7 12 Sudoeste 32 Sudoeste 0 -- -- 27
2019-06-24 15:00:00 31.1 8 Oeste 25 Sudeste 0 -- -- 27
2019-06-24 14:00:00 31.1 10 Sudeste 21 Sur 0 -- -- 27
2019-06-24 13:00:00 29.2 7 Sudoeste 18 Sudoeste 0 -- -- 29
2019-06-24 12:00:00 26.7 8 Sudoeste 15 Sudoeste 0 -- -- 33
2019-06-24 11:00:00 25.4 5 Sudoeste 17 Sudoeste 0 -- -- 36
2019-06-24 10:00:00 23.8 9 Sur 17 Sur 0 -- -- 38
2019-06-24 09:00:00 22.9 4 Este 17 Este 0 -- -- 39
2019-06-24 08:00:00 21.1 5 Este 10 Este 0 -- -- 43
2019-06-24 07:00:00 20.4 4 Sudeste 15 Nordeste 0 -- -- 42
2019-06-24 06:00:00 20.8 4 Nordeste 11 Nordeste 0 -- -- 41
2019-06-24 05:00:00 22.2 5 Norte 22 Sudeste 0 -- -- 38
2019-06-24 04:00:00 22.8 4 Sudeste 25 Sur 0 -- -- 36
2019-06-24 03:00:00 24.3 16 Sur 42 Sudeste 0 -- -- 34
2019-06-24 02:00:00 25.8 29 Sur 52 Sur 0 -- -- 32
2019-06-24 01:00:00 27.3 32 Sur 54 Sur 0 -- -- 31
2019-06-24 00:00:00 28.1 24 Sur 38 Sur 0 -- -- 33
2019-06-23 23:00:00 26.5 4 Nordeste 9 Nordeste 0 -- -- 34
2019-06-23 22:00:00 28.3 2 Este 9 Este 0 -- -- 34
2019-06-23 21:00:00 32.2 2 Sudeste 10 Oeste 0 -- -- 29
2019-06-23 20:00:00 32.8 5 Oeste 19 Oeste 0 -- -- 23
2019-06-23 19:00:00 33.5 10 Sudoeste 30 Sudoeste 0 -- -- 23
2019-06-23 18:00:00 34.9 15 Sudoeste 40 Sur 0 -- -- 22
2019-06-23 17:00:00 34.3 15 Oeste 32 Oeste 0 -- -- 21
2019-06-23 16:00:00 33.9 18 Sudoeste 36 Oeste 0 -- -- 21
2019-06-23 15:00:00 33.2 20 Sudoeste 34 Sudoeste 0 -- -- 22
2019-06-23 14:00:00 31.7 12 Oeste 31 Oeste 0 -- -- 24
2019-06-23 13:00:00 30.1 15 Sudoeste 28 Oeste 0 -- -- 25
2019-06-23 12:00:00 29.3 9 Oeste 24 Sur 0 -- -- 30
2019-06-23 11:00:00 27.3 8 Sur 18 Sur 0 -- -- 35
2019-06-23 10:00:00 24.9 11 Sur 17 Sur 0 -- -- 41
2019-06-23 09:00:00 21.7 6 Nordeste 9 Este 0 -- -- 51
2019-06-23 08:00:00 19.6 6 Nordeste 9 Nordeste 0 -- -- 59
2019-06-23 07:00:00 18.9 3 Este 13 Oeste 0 -- -- 62
2019-06-23 06:00:00 21.1 7 Noroeste 23 Sudeste 0 -- -- 55
2019-06-23 05:00:00 21.4 0 Calma 43 Sudeste 0 -- -- 54
2019-06-23 04:00:00 22.7 25 Sudeste 44 Sudeste 0 -- -- 51
2019-06-23 03:00:00 23.3 18 Sur 33 Sur 0 -- -- 50
2019-06-23 02:00:00 21.2 12 Sur 21 Sur 0 -- -- 49
2019-06-23 01:00:00 19.7 3 Este 5 Nordeste 0 -- -- 45
2019-06-23 00:00:00 21 3 Este 5 Este 0 -- -- 39
2019-06-22 23:00:00 23.8 0 Calma 4 Sudeste 0 -- -- 33
2019-06-22 22:00:00 27.3 3 Sudoeste 16 Oeste 0 -- -- 28
2019-06-22 21:00:00 30.6 10 Sudoeste 26 Oeste 0 -- -- 22
2019-06-22 20:00:00 31.9 12 Oeste 30 Oeste 0 -- -- 22
2019-06-22 19:00:00 32.5 13 Oeste 42 Oeste 0 -- -- 21
2019-06-22 18:00:00 32.6 13 Oeste 28 Sudoeste 0 -- -- 21
2019-06-22 17:00:00 31.7 14 Oeste 32 Oeste 0 -- -- 25
2019-06-22 16:00:00 32.1 11 Sur 27 Sudoeste 0 -- -- 26
2019-06-22 15:00:00 31.2 13 Oeste 28 Sudoeste 0 -- -- 28
2019-06-22 14:00:00 30.2 13 Sudoeste 25 Sudoeste 0 -- -- 32
2019-06-22 13:00:00 28.4 7 Sur 19 Sudoeste 0 -- -- 38
2019-06-22 12:00:00 26.2 3 Este 11 Sudeste 0 -- -- 43
2019-06-22 11:00:00 23.2 4 Nordeste 13 Nordeste 0 -- -- 49
2019-06-22 10:00:00 20.5 8 Este 13 Este 0 -- -- 54
2019-06-22 09:00:00 18.1 8 Nordeste 13 Este 0 -- -- 59
2019-06-22 08:00:00 15.8 6 Este 14 Este 0 -- -- 66
2019-06-22 07:00:00 13.9 6 Este 11 Este 0 -- -- 71
2019-06-22 06:00:00 14.5 6 Este 15 Este 0 -- -- 68
2019-06-22 05:00:00 15.2 9 Este 17 Este 0 -- -- 67
2019-06-22 04:00:00 16.1 11 Este 23 Nordeste 0 -- -- 64
2019-06-22 03:00:00 17.1 14 Nordeste 26 Nordeste 0 -- -- 61
2019-06-22 02:00:00 18.5 16 Nordeste 37 Nordeste 0 -- -- 56
2019-06-22 01:00:00 20.4 25 Nordeste 40 Nordeste 0 -- -- 52
2019-06-22 00:00:00 21.6 17 Nordeste 27 Nordeste 0 -- -- 45
2019-06-21 23:00:00 23.6 18 Nordeste 28 Nordeste 0 -- -- 41
2019-06-21 22:00:00 25.4 12 Nordeste 20 Este 0 -- -- 39
2019-06-21 21:00:00 27.4 8 Nordeste 18 Norte 0 -- -- 33
2019-06-21 20:00:00 28.2 10 Norte 27 Norte 0 -- -- 32
2019-06-21 19:00:00 28.8 6 Norte 23 Norte 0 -- -- 29
2019-06-21 18:00:00 29.6 8 Noroeste 24 Oeste 0 -- -- 30
2019-06-21 17:00:00 30.8 11 Oeste 37 Sudoeste 0 -- -- 24
2019-06-21 16:00:00 29.8 12 Sudoeste 26 Oeste 0 -- -- 24
2019-06-21 15:00:00 29 5 Noroeste 21 Noroeste 0 -- -- 27
2019-06-21 14:00:00 28 9 Noroeste 21 Oeste 0 -- -- 29
2019-06-21 13:00:00 26.9 6 Noroeste 17 Noroeste 0 -- -- 35
2019-06-21 12:00:00 25.5 8 Este 16 Nordeste 0 -- -- 40
2019-06-21 11:00:00 23.9 8 Nordeste 17 Nordeste 0 -- -- 47
2019-06-21 10:00:00 21.6 12 Nordeste 23 Nordeste 0 -- -- 54
2019-06-21 09:00:00 19.4 15 Nordeste 22 Nordeste 0 -- -- 59
2019-06-21 08:00:00 17.1 12 Este 18 Nordeste 0 -- -- 68
2019-06-21 07:00:00 15.5 8 Este 22 Este 0 -- -- 71
2019-06-21 06:00:00 16.8 14 Nordeste 28 Nordeste 0 -- -- 67
2019-06-21 05:00:00 17.7 19 Nordeste 30 Nordeste 0 -- -- 65
2019-06-21 04:00:00 18.2 18 Nordeste 32 Nordeste 0 -- -- 63
2019-06-21 03:00:00 19.2 19 Nordeste 28 Nordeste 0 -- -- 59
2019-06-21 02:00:00 20 18 Nordeste 28 Nordeste 0 -- -- 57
2019-06-21 01:00:00 21.3 3 Sudoeste 10 Sudoeste 0 -- -- 45
2019-06-21 00:00:00 23.1 9 Oeste 17 Oeste 0 -- -- 41
2019-06-20 23:00:00 24.1 9 Oeste 21 Oeste 0 -- -- 39
2019-06-20 22:00:00 25.5 14 Oeste 27 Oeste 0 -- -- 36
2019-06-20 21:00:00 26.9 15 Oeste 29 Sudoeste 0 -- -- 32
2019-06-20 20:00:00 28.2 18 Oeste 35 Oeste 0 -- -- 30
2019-06-20 19:00:00 29.6 22 Oeste 40 Oeste 0 -- -- 28
2019-06-20 18:00:00 29.6 20 Oeste 36 Oeste 0 -- -- 28
2019-06-20 17:00:00 29.4 15 Sudoeste 36 Oeste 0 -- -- 29
2019-06-20 16:00:00 28.1 15 Oeste 29 Oeste 0 -- -- 30
2019-06-20 15:00:00 27 12 Oeste 27 Oeste 0 -- -- 35
2019-06-20 14:00:00 26.7 13 Sudoeste 29 Sudoeste 0 -- -- 35
2019-06-20 13:00:00 26.4 14 Sudoeste 26 Oeste 0 -- -- 37
2019-06-20 12:00:00 26 7 Oeste 20 Sudeste 0 -- -- 38
2019-06-20 11:00:00 25.7 8 Este 18 Este 0 -- -- 39
2019-06-20 10:00:00 22.3 4 Este 9 Sudeste 0 -- -- 46
2019-06-20 09:00:00 19.3 5 Nordeste 13 Nordeste 0 -- -- 53
2019-06-20 08:00:00 15.7 7 Este 12 Nordeste 0 -- -- 65
2019-06-20 07:00:00 13 6 Este 8 Este 0 -- -- 72
2019-06-20 06:00:00 13.9 2 Este 9 Nordeste 0 -- -- 68
2019-06-20 05:00:00 14.5 8 Nordeste 10 Nordeste 0 -- -- 66
2019-06-20 04:00:00 15 6 Este 10 Nordeste 0 -- -- 65
2019-06-20 03:00:00 15.9 4 Nordeste 7 Nordeste 0 -- -- 61
2019-06-20 02:00:00 18.1 0 Calma 4 Este 0 -- -- 54
2019-06-20 01:00:00 19.6 2 Sur 10 Sudoeste 0 -- -- 51
2019-06-20 00:00:00 21.6 7 Sudoeste 18 Sudoeste 0 -- -- 46
2019-06-19 23:00:00 22.7 9 Sudoeste 23 Sudoeste 0 -- -- 44
2019-06-19 22:00:00 24.1 13 Sudoeste 24 Sudoeste 0 -- -- 39
2019-06-19 21:00:00 25.7 12 Sudoeste 30 Sudoeste 0 -- -- 37
2019-06-19 20:00:00 27.4 18 Sudoeste 36 Oeste 0 -- -- 34
2019-06-19 19:00:00 28 21 Oeste 37 Oeste 0 -- -- 33
2019-06-19 18:00:00 28.1 22 Oeste 42 Sudoeste 0 -- -- 34
2019-06-19 17:00:00 28.4 24 Oeste 40 Oeste 0 -- -- 34
2019-06-19 16:00:00 28 18 Sudoeste 40 Oeste 0 -- -- 36
2019-06-19 15:00:00 27 22 Oeste 37 Sudoeste 0 -- -- 37
2019-06-19 14:00:00 26.1 21 Oeste 44 Oeste 0 -- -- 39
2019-06-19 13:00:00 -- -- -- -- -- -- -- -- --
2019-06-19 12:00:00 -- -- -- -- -- -- -- -- --
2019-06-19 11:00:00 -- -- -- -- -- -- -- -- --
2019-06-19 10:00:00 -- -- -- -- -- -- -- -- --
2019-06-19 09:00:00 -- -- -- -- -- -- -- -- --
2019-06-19 08:00:00 -- -- -- -- -- -- -- -- --
2019-06-19 07:00:00 -- -- -- -- -- -- -- -- --
2019-06-19 06:00:00 -- -- -- -- -- -- -- -- --
2019-06-19 05:00:00 19 8 Sudoeste 18 Sudoeste 0 -- -- 60
2019-06-19 04:00:00 19.5 9 Sudoeste 15 Sudoeste 0 -- -- 56
2019-06-19 03:00:00 20.5 7 Sudoeste 15 Sudoeste 0 -- -- 50
2019-06-19 02:00:00 -- -- -- -- -- -- -- -- --
2019-06-19 01:00:00 19.9 3 Sudoeste 8 Sudoeste 0 -- -- 49
2019-06-19 00:00:00 22 5 Oeste 19 Oeste 0 -- -- 45
2019-06-18 23:00:00 23.2 9 Oeste 27 Oeste 0 -- -- 40
2019-06-18 22:00:00 25.1 15 Oeste 33 Oeste 0 -- -- 35
2019-06-18 21:00:00 27.8 21 Oeste 36 Oeste 0 -- -- 21
2019-06-18 20:00:00 29.5 21 Oeste 42 Oeste 0 -- -- 17
2019-06-18 19:00:00 30.7 24 Oeste 42 Oeste 0 -- -- 15
2019-06-18 18:00:00 31.5 26 Oeste 41 Oeste 0 -- -- 16
2019-06-18 17:00:00 31.8 19 Sudoeste 44 Oeste 0 -- -- 16
2019-06-18 16:00:00 31.1 25 Sudoeste 43 Sudoeste 0 -- -- 19
2019-06-18 15:00:00 30.3 21 Sudoeste 45 Oeste 0 -- -- 19
2019-06-18 14:00:00 29.4 24 Sudoeste 38 Sudoeste 0 -- -- 17
2019-06-18 13:00:00 28.7 19 Sudoeste 37 Oeste 0 -- -- 18
2019-06-18 12:00:00 27.2 20 Sudoeste 39 Oeste 0 -- -- 22
2019-06-18 11:00:00 26.3 16 Sudoeste 28 Oeste 0 -- -- 21
2019-06-18 10:00:00 24.7 18 Sudoeste 27 Oeste 0 -- -- 26
2019-06-18 09:00:00 22.7 8 Oeste 14 Sudoeste 0 -- -- 28
2019-06-18 08:00:00 18.7 0 Calma 6 Sur 0 -- -- 36
2019-06-18 07:00:00 15.8 0 Calma 6 Sur 0 -- -- 43
2019-06-18 06:00:00 18.3 4 Sudoeste 14 Sur 0 -- -- 36
2019-06-18 05:00:00 17.7 0 Calma 13 Nordeste 0 -- -- 42
2019-06-18 04:00:00 19.2 8 Nordeste 12 Este 0 -- -- 39
2019-06-18 03:00:00 19.6 4 Este 9 Este 0 -- -- 40
2019-06-18 02:00:00 20.9 0 Calma 4 Sudeste 0 -- -- 36
2019-06-18 01:00:00 22.9 0 Calma 4 Noroeste 0 -- -- 31
2019-06-18 00:00:00 24.2 3 Sur 7 Oeste 0 -- -- 30
2019-06-17 23:00:00 25.7 3 Oeste 9 Sur 0 -- -- 24
2019-06-17 22:00:00 27.7 3 Sur 10 Oeste 0 -- -- 23
2019-06-17 21:00:00 29.9 9 Sudoeste 25 Sudoeste 0 -- -- 20
2019-06-17 20:00:00 31.1 15 Oeste 28 Oeste 0 -- -- 18
2019-06-17 19:00:00 32.4 17 Oeste 32 Sudoeste 0 -- -- 17
2019-06-17 18:00:00 32.4 15 Sudoeste 41 Oeste 0 -- -- 17
2019-06-17 17:00:00 32.3 18 Sudoeste 34 Oeste 0 -- -- 17
2019-06-17 16:00:00 31.7 13 Sudoeste 35 Oeste 0 -- -- 18
2019-06-17 15:00:00 31 16 Sudoeste 31 Sudoeste 0 -- -- 19
2019-06-17 14:00:00 30.2 14 Oeste 32 Oeste 0 -- -- 21
2019-06-17 13:00:00 29.1 8 Oeste 25 Oeste 0 -- -- 24
2019-06-17 12:00:00 27.2 6 Noroeste 15 Oeste 0 -- -- 29
2019-06-17 11:00:00 25 4 Oeste 8 Noroeste 0 -- -- 36
2019-06-17 10:00:00 22.3 2 Sur 8 Nordeste 0 -- -- 42
2019-06-17 09:00:00 19.1 6 Nordeste 10 Este 0 -- -- 45
2019-06-17 08:00:00 14.7 8 Este 12 Este 0 -- -- 52
2019-06-17 07:00:00 12 6 Este 9 Este 0 -- -- 56
2019-06-17 06:00:00 13.6 5 Este 12 Nordeste 0 -- -- 50
2019-06-17 05:00:00 16.9 9 Este 12 Este 0 -- -- 49
2019-06-17 04:00:00 19.9 3 Sudeste 22 Sur 0 -- -- 45
2019-06-17 03:00:00 20.9 15 Sur 27 Sur 0 -- -- 42
2019-06-17 02:00:00 22 17 Sur 27 Sur 0 -- -- 38
2019-06-17 01:00:00 22.6 17 Sur 29 Sur 0 -- -- 34
2019-06-17 00:00:00 17.3 5 Sudeste 13 Sur 0 -- -- 38
2019-06-16 23:00:00 20.3 2 Nordeste 4 Este 0 -- -- 28
2019-06-16 22:00:00 24.9 4 Sur 18 Noroeste 0 -- -- 24
2019-06-16 21:00:00 28.1 11 Noroeste 21 Noroeste 0 -- -- 19
2019-06-16 20:00:00 29.5 10 Noroeste 27 Oeste 0 -- -- 20
2019-06-16 19:00:00 30.1 10 Oeste 24 Oeste 0 -- -- 20
2019-06-16 18:00:00 30.2 15 Oeste 25 Sudoeste 0 -- -- 20
2019-06-16 17:00:00 30.7 14 Sudoeste 30 Oeste 0 -- -- 19
2019-06-16 16:00:00 29.7 9 Noroeste 34 Noroeste 0 -- -- 23
2019-06-16 15:00:00 29.5 9 Oeste 33 Este 0 -- -- 24
2019-06-16 14:00:00 28 11 Sudoeste 23 Sur 0 -- -- 25
2019-06-16 13:00:00 27.3 8 Oeste 19 Oeste 0 -- -- 24
2019-06-16 12:00:00 25.9 4 Sur 14 Sudoeste 0 -- -- 27
2019-06-16 11:00:00 22.7 4 Noroeste 11 Este 0 -- -- 33
2019-06-16 10:00:00 19.9 6 Este 15 Este 0 -- -- 39
2019-06-16 09:00:00 16.2 10 Este 14 Nordeste 0 -- -- 53
2019-06-16 08:00:00 12.9 9 Este 17 Este 0 -- -- 61
2019-06-16 07:00:00 11.3 11 Este 17 Este 0 -- -- 63
2019-06-16 06:00:00 11.3 9 Este 15 Este 0 -- -- 61
2019-06-16 05:00:00 12.1 10 Este 15 Este 0 -- -- 57
2019-06-16 04:00:00 13.1 10 Este 18 Este 0 -- -- 50
2019-06-16 03:00:00 12.7 9 Este 16 Este 0 -- -- 48
2019-06-16 02:00:00 12.9 5 Este 12 Nordeste 0 -- -- 48
2019-06-16 01:00:00 13.6 8 Nordeste 12 Nordeste 0 -- -- 44
2019-06-16 00:00:00 16.9 3 Sudoeste 8 Sur 0 -- -- 34
2019-06-15 23:00:00 19 5 Sudoeste 8 Sur 0 -- -- 30
2019-06-15 22:00:00 22.3 5 Sur 10 Sudoeste 0 -- -- 29
2019-06-15 21:00:00 26.6 2 Sur 8 Sudoeste 0 -- -- 22
2019-06-15 20:00:00 26.6 4 Sudeste 15 Oeste 0 -- -- 22
2019-06-15 19:00:00 26.7 10 Oeste 19 Oeste 0 -- -- 21
2019-06-15 18:00:00 26.2 5 Oeste 23 Sudoeste 0 -- -- 22
2019-06-15 17:00:00 26.5 6 Sudoeste 19 Noroeste 0 -- -- 23
2019-06-15 16:00:00 25.4 13 Oeste 24 Oeste 0 -- -- 24
2019-06-15 15:00:00 24.5 7 Sudoeste 24 Oeste 0 -- -- 24
2019-06-15 14:00:00 22.6 9 Noroeste 19 Oeste 0 -- -- 29
2019-06-15 13:00:00 21.7 8 Noroeste 22 Oeste 0 -- -- 31
2019-06-15 12:00:00 20.5 6 Norte 12 Sur 0 -- -- 35
2019-06-15 11:00:00 19 4 Nordeste 13 Nordeste 0 -- -- 39
2019-06-15 10:00:00 17.2 7 Este 13 Este 0 -- -- 43
2019-06-15 09:00:00 14.4 3 Este 8 Nordeste 0 -- -- 51
2019-06-15 08:00:00 11.1 3 Este 6 Este 0 -- -- 60
2019-06-15 07:00:00 8.3 0 Calma 4 Sur 0 -- -- 67
2019-06-15 06:00:00 9.2 0 Calma 8 Sur 0 -- -- 63
2019-06-15 05:00:00 11 2 Sur 5 Sur 0 -- -- 56
2019-06-15 04:00:00 12.6 3 Sur 14 Sur 0 -- -- 51
2019-06-15 03:00:00 13.6 4 Sudoeste 10 Sudoeste 0 -- -- 48
2019-06-15 02:00:00 15.4 7 Sudoeste 17 Sudoeste 0 -- -- 43
2019-06-15 01:00:00 16.6 9 Sudoeste 31 Sudoeste 0 -- -- 40
2019-06-15 00:00:00 18.1 19 Oeste 31 Oeste 0 -- -- 37
2019-06-14 23:00:00 19 15 Oeste 27 Oeste 0 -- -- 35
2019-06-14 22:00:00 20.3 13 Oeste 38 Oeste 0 -- -- 30
2019-06-14 21:00:00 22.4 22 Oeste 42 Oeste 0 -- -- 27
2019-06-14 20:00:00 24 23 Oeste 43 Oeste 0 -- -- 23
2019-06-14 19:00:00 25.2 24 Oeste 46 Oeste 0 -- -- 24
2019-06-14 18:00:00 25.5 24 Oeste 44 Sudoeste 0 -- -- 25
2019-06-14 17:00:00 26 23 Oeste 51 Oeste 0 -- -- 22
2019-06-14 16:00:00 26 28 Oeste 46 Sudoeste 0 -- -- 23
2019-06-14 15:00:00 25.6 22 Sudoeste 47 Oeste 0 -- -- 26
2019-06-14 14:00:00 24.7 24 Sudoeste 44 Oeste 0 -- -- 28
2019-06-14 13:00:00 24 20 Sudoeste 42 Sudoeste 0 -- -- 28
2019-06-14 12:00:00 22.9 25 Oeste 40 Oeste 0 -- -- 31
2019-06-14 11:00:00 22.3 23 Oeste 37 Oeste 0 -- -- 34
2019-06-14 10:00:00 19.7 13 Sudoeste 20 Sudoeste 0 -- -- 37
2019-06-14 09:00:00 17.6 11 Sudoeste 19 Sur 0 -- -- 40
2019-06-14 08:00:00 12.8 0 Calma 8 Nordeste 0 -- -- 59
2019-06-14 07:00:00 12.4 7 Nordeste 9 Nordeste 0 -- -- 58
2019-06-14 06:00:00 14.5 8 Nordeste 19 Sudoeste 0 -- -- 64
2019-06-14 05:00:00 17.7 12 Sudoeste 21 Sudoeste 0 -- -- 64
2019-06-14 04:00:00 17.9 6 Sudoeste 25 Sur 0 -- -- 61
2019-06-14 03:00:00 18.7 17 Sur 26 Sur 0 -- -- 59
2019-06-14 02:00:00 19.5 13 Sur 23 Sur 0 -- -- 47
2019-06-14 01:00:00 18.1 10 Sur 14 Sur 0 -- -- 33
2019-06-14 00:00:00 18.2 2 Sudoeste 6 Sur 0 -- -- 35
2019-06-13 23:00:00 21.1 5 Sudoeste 19 Oeste 0 -- -- 30
2019-06-13 22:00:00 24.1 13 Oeste 24 Oeste 0 -- -- 24
2019-06-13 21:00:00 27.3 12 Oeste 28 Oeste 0 -- -- 22
2019-06-13 20:00:00 28.2 18 Oeste 34 Sudoeste 0 -- -- 20
2019-06-13 19:00:00 29.1 22 Sudoeste 43 Oeste 0 -- -- 19
2019-06-13 18:00:00 29.5 22 Sudoeste 36 Oeste 0 -- -- 21
2019-06-13 17:00:00 28.6 15 Sudoeste 35 Sur 0 -- -- 22
2019-06-13 16:00:00 28.9 20 Sur 39 Noroeste 0 -- -- 27
2019-06-13 15:00:00 27.5 21 Sudoeste 39 Oeste 0 -- -- 26
2019-06-13 14:00:00 26.8 17 Sudoeste 35 Sudoeste 0 -- -- 30
2019-06-13 13:00:00 25.6 17 Sudoeste 35 Sur 0 -- -- 33
2019-06-13 12:00:00 24 14 Sudoeste 28 Sudoeste 0 -- -- 38
2019-06-13 11:00:00 21.7 17 Sur 30 Sur 0 -- -- 46
2019-06-13 10:00:00 18.5 3 Este 16 Nordeste 0 -- -- 56
2019-06-13 09:00:00 16.2 9 Nordeste 15 Este 0 -- -- 60
2019-06-13 08:00:00 13.1 8 Este 11 Este 0 -- -- 71
2019-06-13 07:00:00 12.9 4 Sudeste 8 Sudeste 0 -- -- 72
2019-06-13 06:00:00 14.5 6 Nordeste 20 Oeste 0 -- -- 69
2019-06-13 05:00:00 15 4 Oeste 49 Sudeste 0 -- -- 64
2019-06-13 04:00:00 15.7 24 Sur 48 Sur 0 -- -- 59
2019-06-13 03:00:00 16.4 24 Sur 45 Sudeste 0 -- -- 55
2019-06-13 02:00:00 17.1 24 Sur 42 Sudeste 0 -- -- 55
2019-06-13 01:00:00 16.5 20 Sur 32 Sudeste 0 -- -- 52
2019-06-13 00:00:00 13.2 4 Nordeste 7 Nordeste 0 -- -- 36
2019-06-12 23:00:00 15.7 3 Nordeste 4 Sudeste 0 -- -- 30
2019-06-12 22:00:00 21 0 Calma 8 Oeste 0 -- -- 28
2019-06-12 21:00:00 25.6 3 Oeste 21 Sudoeste 0 -- -- 17
2019-06-12 20:00:00 25.7 9 Sudoeste 28 Sudoeste 0 -- -- 16
2019-06-12 19:00:00 25.8 16 Oeste 33 Oeste 0 -- -- 18
2019-06-12 18:00:00 25.9 18 Sudoeste 28 Sudoeste 0 -- -- 18
2019-06-12 17:00:00 25.3 16 Oeste 37 Oeste 0 -- -- 19
2019-06-12 16:00:00 24.5 14 Oeste 26 Oeste 0 -- -- 20
2019-06-12 15:00:00 23.2 12 Oeste 28 Oeste 0 -- -- 22
2019-06-12 14:00:00 22.5 7 Sudeste 26 Oeste 0 -- -- 24
2019-06-12 13:00:00 21.9 8 Sudeste 31 Sur 0 -- -- 26
2019-06-12 12:00:00 19.6 9 Oeste 26 Oeste 0 -- -- 35
2019-06-12 11:00:00 17.4 5 Sur 10 Oeste 0 -- -- 40
2019-06-12 10:00:00 14.4 5 Noroeste 12 Este 0 -- -- 46
2019-06-12 09:00:00 11.5 8 Este 13 Nordeste 0 -- -- 56
2019-06-12 08:00:00 8.1 8 Este 12 Este 0 -- -- 65
2019-06-12 07:00:00 5.1 5 Este 7 Este 0 -- -- 72
2019-06-12 06:00:00 5.7 4 Este 9 Este 0 -- -- 68
2019-06-12 05:00:00 7.4 7 Este 12 Nordeste 0 -- -- 64
2019-06-12 04:00:00 7.3 8 Este 12 Este 0 -- -- 61
2019-06-12 03:00:00 8.8 8 Este 15 Este 0 -- -- 52
2019-06-12 02:00:00 8.8 7 Este 13 Nordeste 0 -- -- 49
2019-06-12 01:00:00 9.2 6 Este 9 Nordeste 0 -- -- 48
2019-06-12 00:00:00 11.6 7 Nordeste 9 Nordeste 0 -- -- 39
2019-06-11 23:00:00 13.8 5 Este 21 Nordeste 0 -- -- 35
2019-06-11 22:00:00 16.6 10 Nordeste 24 Norte 0 -- -- 30
2019-06-11 21:00:00 19.1 16 Nordeste 25 Nordeste 0 -- -- 24
2019-06-11 20:00:00 20.3 18 Norte 34 Nordeste 0 -- -- 25
2019-06-11 19:00:00 21.1 16 Norte 28 Noroeste 0 -- -- 22
2019-06-11 18:00:00 21.8 12 Noroeste 31 Nordeste 0 -- -- 20
2019-06-11 17:00:00 20.7 18 Norte 36 Norte 0 -- -- 23
2019-06-11 16:00:00 20.9 17 Norte 38 Nordeste 0 -- -- 27
2019-06-11 15:00:00 18.7 18 Norte 32 Este 0 -- -- 34
2019-06-11 14:00:00 17.8 18 Este 37 Este 0 -- -- 42
2019-06-11 13:00:00 17 22 Nordeste 43 Nordeste 0 -- -- 45
2019-06-11 12:00:00 15.9 24 Nordeste 36 Nordeste 0 -- -- 50
2019-06-11 11:00:00 15.5 26 Nordeste 37 Nordeste 0 -- -- 50
2019-06-11 10:00:00 14.7 23 Nordeste 37 Nordeste 0 -- -- 53
2019-06-11 09:00:00 14.5 25 Nordeste 36 Nordeste 0 -- -- 53
2019-06-11 08:00:00 14.6 12 Nordeste 24 Nordeste 0 -- -- 55
2019-06-11 07:00:00 14.4 14 Nordeste 25 Nordeste 0 -- -- 57
2019-06-11 06:00:00 14.3 9 Este 14 Este 0 -- -- 53
2019-06-11 05:00:00 14 5 Nordeste 10 Este 0 -- -- 53
2019-06-11 04:00:00 14 4 Este 9 Este 0 -- -- 49
2019-06-11 03:00:00 12.8 3 Nordeste 7 Este 0 -- -- 51
2019-06-11 02:00:00 14.1 4 Sudeste 12 Este 0 -- -- 47
2019-06-11 01:00:00 15.2 10 Nordeste 12 Nordeste 0 -- -- 45
2019-06-11 00:00:00 17.1 3 Nordeste 6 Este 0 -- -- 36
2019-06-10 23:00:00 18.3 3 Sudeste 9 Norte 0 -- -- 34
2019-06-10 22:00:00 21.9 5 Norte 21 Noroeste 0 -- -- 26
2019-06-10 21:00:00 25.1 14 Noroeste 33 Oeste 0 -- -- 20
2019-06-10 20:00:00 26.4 18 Oeste 31 Oeste 0 -- -- 19
2019-06-10 19:00:00 26.5 17 Oeste 34 Oeste 0 -- -- 19
2019-06-10 18:00:00 27.4 10 Sudoeste 27 Sudoeste 0 -- -- 23
2019-06-10 17:00:00 26.7 5 Este 25 Sudoeste 0 -- -- 25
2019-06-10 16:00:00 26 13 Noroeste 31 Oeste 0 -- -- 27
2019-06-10 15:00:00 25.7 9 Oeste 28 Sudoeste 0 -- -- 26
2019-06-10 14:00:00 25 10 Sur 27 Oeste 0 -- -- 28
2019-06-10 13:00:00 24.2 8 Oeste 22 Oeste 0 -- -- 31
2019-06-10 12:00:00 22.7 6 Sudoeste 15 Sudeste 0 -- -- 36
2019-06-10 11:00:00 20.6 8 Nordeste 18 Nordeste 0 -- -- 44
2019-06-10 10:00:00 18.8 10 Nordeste 16 Este 0 -- -- 51
2019-06-10 09:00:00 15.9 12 Nordeste 15 Nordeste 0 -- -- 62
2019-06-10 08:00:00 13.1 8 Nordeste 13 Este 0 -- -- 71
2019-06-10 07:00:00 11.3 5 Este 13 Este 0 -- -- 75
2019-06-10 06:00:00 11.3 8 Nordeste 12 Nordeste 0 -- -- 71
2019-06-10 05:00:00 11.4 7 Nordeste 10 Nordeste 0 -- -- 64
2019-06-10 04:00:00 11.9 8 Nordeste 10 Nordeste 0 -- -- 58
2019-06-10 03:00:00 14.8 5 Este 12 Nordeste 0 -- -- 50
2019-06-10 02:00:00 17.1 5 Norte 19 Este 0 -- -- 41
2019-06-10 01:00:00 18 6 Nordeste 15 Noroeste 0 -- -- 37
2019-06-10 00:00:00 19.1 5 Este 17 Oeste 0 -- -- 33
2019-06-09 23:00:00 21.8 14 Oeste 24 Oeste 0 -- -- 29
2019-06-09 22:00:00 22.6 10 Sudoeste 19 Sudoeste 0 -- -- 25
2019-06-09 21:00:00 24.1 11 Sudoeste 31 Sudoeste 0 -- -- 21
2019-06-09 20:00:00 26.7 16 Sudoeste 34 Oeste 0 -- -- 19
2019-06-09 19:00:00 27.6 22 Oeste 43 Oeste 0 -- -- 18
2019-06-09 18:00:00 28.1 17 Sudoeste 36 Oeste 0 -- -- 20
2019-06-09 17:00:00 27.9 23 Oeste 39 Oeste 0 -- -- 17
2019-06-09 16:00:00 27.6 20 Sudoeste 41 Oeste 0 -- -- 19
2019-06-09 15:00:00 27.3 21 Oeste 38 Oeste 0 -- -- 22
2019-06-09 14:00:00 26.5 20 Sudoeste 37 Sudoeste 0 -- -- 24
2019-06-09 13:00:00 25.2 13 Oeste 30 Oeste 0 -- -- 29
2019-06-09 12:00:00 24.2 13 Oeste 25 Oeste 0 -- -- 33
2019-06-09 11:00:00 21.8 7 Sudoeste 14 Oeste 0 -- -- 42
2019-06-09 10:00:00 19.6 4 Oeste 12 Sudoeste 0 -- -- 51
2019-06-09 09:00:00 16.4 4 Nordeste 10 Nordeste 0 -- -- 60
2019-06-09 08:00:00 12.7 5 Este 9 Este 0 -- -- 72
2019-06-09 07:00:00 10.5 2 Nordeste 5 Este 0 -- -- 76
2019-06-09 06:00:00 11.9 3 Sudeste 6 Sudeste 0 -- -- 72
2019-06-09 05:00:00 14.1 0 Calma 12 Noroeste 0 -- -- 63
2019-06-09 04:00:00 17.6 4 Noroeste 23 Sur 0 -- -- 53
2019-06-09 03:00:00 18.4 15 Sur 40 Sur 0 -- -- 51
2019-06-09 02:00:00 18.4 21 Sur 39 Sudeste 0 -- -- 51
2019-06-09 01:00:00 18.9 23 Sur 36 Sur 0 -- -- 52
2019-06-09 00:00:00 20.2 19 Sur 37 Sur 0 -- -- 50
2019-06-08 23:00:00 21.5 19 Sur 33 Sur 0 -- -- 47
2019-06-08 22:00:00 23.1 20 Sur 37 Sur 0 -- -- 43
2019-06-08 21:00:00 25.1 23 Sur 42 Sudeste 0 -- -- 39
2019-06-08 20:00:00 26.1 22 Sur 41 Sudeste 0 -- -- 37
2019-06-08 19:00:00 27.9 22 Sur 43 Sur 0 -- -- 34
2019-06-08 18:00:00 28.6 25 Sur 45 Sur 0 -- -- 32
2019-06-08 17:00:00 28.9 22 Sur 39 Sur 0 -- -- 30
2019-06-08 16:00:00 29.3 21 Sur 39 Sur 0 -- -- 29
2019-06-08 15:00:00 27.8 14 Sur 37 Sudoeste 0 -- -- 31
2019-06-08 14:00:00 27 21 Sur 35 Sur 0 -- -- 34
2019-06-08 13:00:00 25.7 16 Sur 37 Sur 0 -- -- 37
2019-06-08 12:00:00 24.1 12 Sur 23 Sur 0 -- -- 34
2019-06-08 11:00:00 20.5 10 Nordeste 19 Este 0 -- -- 35
2019-06-08 10:00:00 17.3 14 Nordeste 19 Nordeste 0 -- -- 40
2019-06-08 09:00:00 13.2 11 Este 20 Este 0 -- -- 49
2019-06-08 08:00:00 10.4 11 Este 19 Este 0 -- -- 55
2019-06-08 07:00:00 8.7 10 Este 18 Nordeste 0 -- -- 59
2019-06-08 06:00:00 9 12 Este 18 Este 0 -- -- 59
2019-06-08 05:00:00 9.4 9 Este 17 Este 0 -- -- 58
2019-06-08 04:00:00 9.3 9 Este 12 Este 0 -- -- 60
2019-06-08 03:00:00 9.5 5 Este 12 Este 0 -- -- 60
2019-06-08 02:00:00 10.8 6 Este 13 Nordeste 0 -- -- 56
2019-06-08 01:00:00 11.4 7 Nordeste 13 Este 0 -- -- 53
2019-06-08 00:00:00 12.8 10 Este 14 Este 0 -- -- 47
2019-06-07 23:00:00 14.6 6 Este 10 Norte 0 -- -- 44
2019-06-07 22:00:00 18.4 2 Sudoeste 13 Oeste 0 -- -- 36
2019-06-07 21:00:00 21.9 7 Oeste 18 Noroeste 0 -- -- 25
2019-06-07 20:00:00 22.8 8 Sudoeste 22 Oeste 0 -- -- 24
2019-06-07 19:00:00 22.8 9 Oeste 26 Oeste 0 -- -- 24
2019-06-07 18:00:00 22.3 17 Oeste 28 Norte 0 -- -- 25
2019-06-07 17:00:00 21.9 12 Oeste 25 Oeste 0 -- -- 26
2019-06-07 16:00:00 21.6 10 Sudoeste 27 Oeste 0 -- -- 28
2019-06-07 15:00:00 20.6 8 Sur 24 Sudoeste 0 -- -- 28
2019-06-07 14:00:00 19.2 8 Norte 22 Oeste 0 -- -- 31
2019-06-07 13:00:00 17.7 8 Noroeste 21 Noroeste 0 -- -- 38
2019-06-07 12:00:00 16.3 10 Oeste 22 Oeste 0 -- -- 43
2019-06-07 11:00:00 14.7 9 Oeste 22 Oeste 0.2 -- -- 47
2019-06-07 10:00:00 13.3 4 Noroeste 22 Oeste 0 -- -- 56
2019-06-07 09:00:00 11.8 18 Oeste 33 Oeste 0 -- -- 62
2019-06-07 08:00:00 10.7 11 Sudoeste 21 Oeste 0 -- -- 69
2019-06-07 07:00:00 11.1 10 Oeste 20 Sudoeste 0 -- -- 75
2019-06-07 06:00:00 12.2 12 Oeste 44 Sudoeste 0.8 -- -- 84
2019-06-07 05:00:00 13.6 32 Oeste 48 Oeste 1.6 -- -- 83
2019-06-07 04:00:00 16.3 21 Oeste 41 Oeste 0 -- -- 64
2019-06-07 03:00:00 16.7 25 Oeste 42 Sudoeste 0 -- -- 61
2019-06-07 02:00:00 16.8 21 Oeste 38 Sudoeste 0 -- -- 56
2019-06-07 01:00:00 18.2 14 Sudoeste 26 Oeste 0 -- -- 34
2019-06-07 00:00:00 18.5 10 Sudoeste 21 Sudoeste 0 -- -- 32
2019-06-06 23:00:00 19.9 13 Sudoeste 36 Sudoeste 0 -- -- 29
2019-06-06 22:00:00 20.8 8 Sudoeste 41 Oeste 0 -- -- 27
2019-06-06 21:00:00 22.9 22 Sudoeste 43 Oeste 0 -- -- 24
2019-06-06 20:00:00 24.3 27 Oeste 45 Oeste 0 -- -- 22
2019-06-06 19:00:00 24.7 24 Sudoeste 47 Sudoeste 0 -- -- 21
2019-06-06 18:00:00 25.1 27 Sudoeste 54 Sudoeste 0 -- -- 21
2019-06-06 17:00:00 25.3 25 Sudoeste 49 Sudoeste 0 -- -- 19
2019-06-06 16:00:00 24.1 26 Sudoeste 52 Sudoeste 0 -- -- 18
2019-06-06 15:00:00 23.7 21 Sudoeste 47 Sudoeste 0 -- -- 24
2019-06-06 14:00:00 22.4 21 Sudoeste 44 Oeste 0 -- -- 27
2019-06-06 13:00:00 22 18 Sudoeste 36 Sudoeste 0 -- -- 29
2019-06-06 12:00:00 19.9 14 Sudoeste 33 Oeste 0 -- -- 32
2019-06-06 11:00:00 18.4 15 Sudoeste 25 Oeste 0 -- -- 35
2019-06-06 10:00:00 16 12 Oeste 18 Oeste 0 -- -- 43
2019-06-06 09:00:00 12.5 3 Oeste 9 Este 0 -- -- 49
2019-06-06 08:00:00 8.8 6 Este 9 Este 0 -- -- 60
2019-06-06 07:00:00 5.2 5 Este 6 Este 0 -- -- 73
2019-06-06 06:00:00 6 3 Este 6 Este 0 -- -- 69
2019-06-06 05:00:00 7 0 Calma 5 Este 0 -- -- 60
2019-06-06 04:00:00 8.2 4 Este 6 Este 0 -- -- 61
2019-06-06 03:00:00 8.7 0 Calma 6 Nordeste 0 -- -- 55
2019-06-06 02:00:00 10.4 0 Calma 5 Nordeste 0 -- -- 50
2019-06-06 01:00:00 10.7 0 Calma 6 Nordeste 0 -- -- 49
2019-06-06 00:00:00 12.2 2 Sudoeste 4 Sur 0 -- -- 42
2019-06-05 23:00:00 14.9 0 Calma 9 Norte 0 -- -- 36
2019-06-05 22:00:00 17.9 4 Noroeste 18 Noroeste 0 -- -- 29
2019-06-05 21:00:00 20.2 11 Noroeste 31 Oeste 0 -- -- 25
2019-06-05 20:00:00 21.9 14 Oeste 30 Oeste 0 -- -- 25
2019-06-05 19:00:00 22.4 19 Oeste 37 Noroeste 0 -- -- 23
2019-06-05 18:00:00 22.3 17 Noroeste 31 Oeste 0 -- -- 24
2019-06-05 17:00:00 20.3 11 Norte 25 Norte 0 -- -- 28
2019-06-05 16:00:00 20.7 10 Oeste 26 Oeste 0 -- -- 28
2019-06-05 15:00:00 20.6 8 Este 24 Norte 0 -- -- 29
2019-06-05 14:00:00 20.5 13 Norte 28 Norte 0 -- -- 29
2019-06-05 13:00:00 18.1 15 Oeste 37 Oeste 0 -- -- 34
2019-06-05 12:00:00 16.7 12 Noroeste 27 Oeste 0 -- -- 40
2019-06-05 11:00:00 15.9 12 Noroeste 27 Oeste 0 -- -- 45
2019-06-05 10:00:00 15.5 13 Oeste 28 Noroeste 0 -- -- 48
2019-06-05 09:00:00 14.8 17 Oeste 32 Oeste 0 -- -- 51
2019-06-05 08:00:00 13.9 18 Sudoeste 29 Sudoeste 0 -- -- 56
2019-06-05 07:00:00 14.7 19 Oeste 33 Oeste 0 -- -- 53
2019-06-05 06:00:00 15.8 18 Oeste 30 Oeste 0 -- -- 51
2019-06-05 05:00:00 16.9 17 Sudoeste 28 Oeste 0 -- -- 55
2019-06-05 04:00:00 17.1 11 Sudoeste 29 Sudoeste 0 -- -- 57
2019-06-05 03:00:00 18.8 16 Sudoeste 33 Sudoeste 0 -- -- 54
2019-06-05 02:00:00 20.8 17 Sudoeste 29 Sudoeste 0 -- -- 46
2019-06-05 01:00:00 21.2 9 Sudoeste 17 Oeste 0 -- -- 43
2019-06-05 00:00:00 22.1 7 Sudoeste 18 Oeste 0 -- -- 42
2019-06-04 23:00:00 21.6 3 Sudoeste 21 Oeste 0 -- -- 44
2019-06-04 22:00:00 23.2 17 Oeste 32 Oeste 0 -- -- 41
2019-06-04 21:00:00 25.1 21 Oeste 38 Oeste 0 -- -- 36
2019-06-04 20:00:00 27.4 26 Oeste 42 Oeste 0 -- -- 31
2019-06-04 19:00:00 29.2 18 Oeste 48 Oeste 0 -- -- 29
2019-06-04 18:00:00 29.9 27 Sudoeste 54 Oeste 0 -- -- 27
2019-06-04 17:00:00 29.6 29 Oeste 50 Oeste 0 -- -- 29
2019-06-04 16:00:00 29.6 30 Sudoeste 44 Oeste 0 -- -- 29
2019-06-04 15:00:00 29.7 24 Sudoeste 44 Oeste 0 -- -- 30
2019-06-04 14:00:00 28.7 26 Oeste 42 Oeste 0 -- -- 32
2019-06-04 13:00:00 27.6 22 Sudoeste 42 Sudoeste 0 -- -- 36
2019-06-04 12:00:00 26.4 20 Sudoeste 41 Sudoeste 0 -- -- 40
2019-06-04 11:00:00 24.8 15 Sudoeste 31 Sudoeste 0 -- -- 47
2019-06-04 10:00:00 22.8 15 Oeste 24 Oeste 0 -- -- 54
2019-06-04 09:00:00 20.9 12 Sudoeste 21 Sudoeste 0 -- -- 59
2019-06-04 08:00:00 15 5 Nordeste 12 Nordeste 0 -- -- 56
2019-06-04 07:00:00 12.3 3 Este 10 Nordeste 0 -- -- 61
2019-06-04 06:00:00 12.5 7 Nordeste 8 Nordeste 0 -- -- 58
2019-06-04 05:00:00 13.3 5 Nordeste 9 Nordeste 0 -- -- 57
2019-06-04 04:00:00 13.4 8 Nordeste 9 Nordeste 0 -- -- 54
2019-06-04 03:00:00 14.1 3 Este 5 Nordeste 0 -- -- 55
2019-06-04 02:00:00 15.2 0 Calma 4 Nordeste 0 -- -- 51
2019-06-04 01:00:00 17.2 5 Nordeste 8 Nordeste 0 -- -- 43
2019-06-04 00:00:00 19.5 5 Nordeste 8 Este 0 -- -- 39
2019-06-03 23:00:00 23 2 Sudeste 8 Oeste 0 -- -- 32
2019-06-03 22:00:00 27.8 6 Oeste 26 Oeste 0 -- -- 23
2019-06-03 21:00:00 30.9 13 Oeste 34 Oeste 0 -- -- 20
2019-06-03 20:00:00 32.6 12 Oeste 35 Noroeste 0 -- -- 18
2019-06-03 19:00:00 33.5 19 Oeste 39 Oeste 0 -- -- 16
2019-06-03 18:00:00 33.5 28 Oeste 43 Oeste 0 -- -- 16
2019-06-03 17:00:00 33.9 26 Oeste 51 Sudoeste 0 -- -- 16
2019-06-03 16:00:00 33.6 26 Sudoeste 44 Oeste 0 -- -- 17
2019-06-03 15:00:00 32.9 27 Oeste 45 Oeste 0 -- -- 18
2019-06-03 14:00:00 32.3 16 Oeste 31 Sudoeste 0 -- -- 20
2019-06-03 13:00:00 30.9 15 Oeste 27 Sudoeste 0 -- -- 22
2019-06-03 12:00:00 29.2 9 Oeste 19 Sudoeste 0 -- -- 27
2019-06-03 11:00:00 26.5 8 Sudoeste 17 Sur 0 -- -- 30
2019-06-03 10:00:00 24.7 6 Sur 14 Sur 0 -- -- 32
2019-06-03 09:00:00 20.9 6 Este 10 Este 0 -- -- 44
2019-06-03 08:00:00 18.1 8 Este 12 Este 0 -- -- 53
2019-06-03 07:00:00 15.9 8 Este 13 Nordeste 0 -- -- 57
2019-06-03 06:00:00 17 4 Este 13 Sudoeste 0 -- -- 52
2019-06-03 05:00:00 17.2 7 Este 12 Nordeste 0 -- -- 47
2019-06-03 04:00:00 20.5 4 Norte 14 Nordeste 0 -- -- 41
2019-06-03 03:00:00 20.1 4 Nordeste 10 Norte 0 -- -- 44
2019-06-03 02:00:00 19.4 5 Nordeste 9 Nordeste 0 -- -- 43
2019-06-03 01:00:00 21 5 Nordeste 6 Nordeste 0 -- -- 39
2019-06-03 00:00:00 23 4 Sudeste 10 Este 0 -- -- 35
2019-06-02 23:00:00 24.7 6 Este 10 Nordeste 0 -- -- 33
2019-06-02 22:00:00 26.6 3 Oeste 7 Sur 0 -- -- 26
2019-06-02 21:00:00 30.2 4 Sudoeste 18 Oeste 0 -- -- 22
2019-06-02 20:00:00 32.6 11 Oeste 24 Sudoeste 0 -- -- 18
2019-06-02 19:00:00 34.8 13 Sudoeste 30 Sudoeste 0 -- -- 16
2019-06-02 18:00:00 34.9 12 Oeste 27 Sudoeste 0 -- -- 17
2019-06-02 17:00:00 35 7 Sudeste 29 Oeste 0 -- -- 18
2019-06-02 16:00:00 34.4 13 Oeste 25 Sudoeste 0 -- -- 19
2019-06-02 15:00:00 33.9 12 Oeste 24 Noroeste 0 -- -- 21
2019-06-02 14:00:00 32.1 8 Noroeste 22 Noroeste 0 -- -- 24
2019-06-02 13:00:00 30.3 6 Oeste 15 Sudoeste 0 -- -- 26
2019-06-02 12:00:00 28 6 Norte 16 Sur 0 -- -- 28
2019-06-02 11:00:00 26 4 Sudoeste 13 Este 0 -- -- 30
2019-06-02 10:00:00 23.3 4 Nordeste 12 Este 0 -- -- 36
2019-06-02 09:00:00 19.3 8 Este 12 Este 0 -- -- 46
2019-06-02 08:00:00 15.9 6 Este 12 Nordeste 0 -- -- 54
2019-06-02 07:00:00 14 5 Este 10 Nordeste 0 -- -- 56
2019-06-02 06:00:00 16.3 2 Este 13 Nordeste 0 -- -- 49
2019-06-02 05:00:00 19.5 4 Este 26 Sur 0 -- -- 40
2019-06-02 04:00:00 21.4 19 Sudeste 35 Sudeste 0 -- -- 35
2019-06-02 03:00:00 21.6 8 Sudeste 26 Sur 0 -- -- 35
2019-06-02 02:00:00 22.7 6 Oeste 16 Sudoeste 0 -- -- 32
2019-06-02 01:00:00 23.6 6 Oeste 15 Sudoeste 0 -- -- 29
2019-06-02 00:00:00 23.8 4 Sudoeste 12 Sur 0 -- -- 30
2019-06-01 23:00:00 25.1 5 Sudoeste 12 Sur 0 -- -- 27
2019-06-01 22:00:00 27.3 5 Sur 7 Sur 0 -- -- 29
2019-06-01 21:00:00 33.4 0 Calma 7 Sudeste 0 -- -- 22
2019-06-01 20:00:00 33.8 5 Sudeste 9 Sudeste 0 -- -- 18
2019-06-01 19:00:00 34.5 6 Noroeste 13 Oeste 0 -- -- 18
2019-06-01 18:00:00 34 7 Oeste 16 Oeste 0 -- -- 18
2019-06-01 17:00:00 33.7 6 Norte 17 Oeste 0 -- -- 19
2019-06-01 16:00:00 32.7 8 Noroeste 23 Sudoeste 0 -- -- 21
2019-06-01 15:00:00 31.9 8 Noroeste 24 Sudoeste 0 -- -- 23
2019-06-01 14:00:00 30.7 9 Noroeste 19 Oeste 0 -- -- 25
2019-06-01 13:00:00 29.1 8 Oeste 31 Sudoeste 0 -- -- 29
2019-06-01 12:00:00 26.7 4 Nordeste 15 Sudoeste 0 -- -- 34
2019-06-01 11:00:00 24.9 3 Sur 10 Este 0 -- -- 37
2019-06-01 10:00:00 22 3 Nordeste 8 Este 0 -- -- 43
2019-06-01 09:00:00 18.4 4 Este 8 Este 0 -- -- 50
2019-06-01 08:00:00 14.4 6 Este 9 Este 0 -- -- 59
2019-06-01 07:00:00 11.9 5 Este 8 Este 0 -- -- 64
2019-06-01 06:00:00 13.4 7 Este 10 Nordeste 0 -- -- 57
2019-06-01 05:00:00 17.1 6 Este 15 Sudeste 0 -- -- 48
2019-06-01 04:00:00 19.7 9 Sudeste 22 Sudeste 0 -- -- 44
2019-06-01 03:00:00 19.6 4 Nordeste 18 Sur 0 -- -- 43
2019-06-01 02:00:00 21.3 6 Sur 25 Sudeste 0 -- -- 35
2019-06-01 01:00:00 20.5 2 Sudeste 16 Este 0 -- -- 34
2019-06-01 00:00:00 21.6 6 Sur 14 Sudoeste 0 -- -- 31
2019-05-31 23:00:00 22.3 0 Calma 6 Sudoeste 0 -- -- 30
2019-05-31 22:00:00 25.4 2 Sudeste 5 Sur 0 -- -- 30
2019-05-31 21:00:00 32.2 0 Calma 9 Sur 0 -- -- 18
2019-05-31 20:00:00 33.3 2 Sudeste 15 Oeste 0 -- -- 17
2019-05-31 19:00:00 32.7 8 Oeste 16 Noroeste 0 -- -- 17
2019-05-31 18:00:00 32.4 6 Este 14 Sudoeste 0 -- -- 18
2019-05-31 17:00:00 32.2 6 Noroeste 17 Norte 0 -- -- 18
2019-05-31 16:00:00 31.4 8 Noroeste 19 Noroeste 0 -- -- 19
2019-05-31 15:00:00 30.2 9 Norte 22 Oeste 0 -- -- 20
2019-05-31 14:00:00 29.5 10 Noroeste 21 Oeste 0 -- -- 26
2019-05-31 13:00:00 28.2 8 Noroeste 18 Oeste 0 -- -- 30
2019-05-31 12:00:00 27 4 Este 9 Sudeste 0 -- -- 31
2019-05-31 11:00:00 24.8 5 Sudeste 12 Nordeste 0 -- -- 35
2019-05-31 10:00:00 21.2 8 Este 14 Este 0 -- -- 42
2019-05-31 09:00:00 17.3 11 Este 16 Este 0 -- -- 48
2019-05-31 08:00:00 13.9 7 Este 12 Este 0 -- -- 56
2019-05-31 07:00:00 11.5 7 Este 13 Este 0 -- -- 60
2019-05-31 06:00:00 11.2 4 Nordeste 8 Este 0 -- -- 58
2019-05-31 05:00:00 13.1 6 Nordeste 12 Este 0 -- -- 52
2019-05-31 04:00:00 14.5 9 Nordeste 14 Este 0 -- -- 47
2019-05-31 03:00:00 15.9 8 Este 14 Nordeste 0 -- -- 43
2019-05-31 02:00:00 17 10 Nordeste 15 Nordeste 0 -- -- 39
2019-05-31 01:00:00 18.4 9 Este 20 Nordeste 0 -- -- 35
2019-05-31 00:00:00 19.8 14 Nordeste 17 Nordeste 0 -- -- 32
2019-05-30 23:00:00 20.2 7 Este 14 Nordeste 0 -- -- 30
2019-05-30 22:00:00 23.5 8 Este 21 Nordeste 0 -- -- 25
2019-05-30 21:00:00 28.2 12 Este 22 Nordeste 0 -- -- 20
2019-05-30 20:00:00 30.2 15 Nordeste 24 Nordeste 0 -- -- 19
2019-05-30 19:00:00 30.8 13 Nordeste 26 Nordeste 0 -- -- 18
2019-05-30 18:00:00 31 12 Nordeste 31 Este 0 -- -- 16
2019-05-30 17:00:00 31.3 8 Este 28 Norte 0 -- -- 19
2019-05-30 16:00:00 29.8 8 Nordeste 25 Nordeste 0 -- -- 23
2019-05-30 15:00:00 28.8 7 Sudoeste 16 Sudoeste 0 -- -- 25
2019-05-30 14:00:00 27.3 6 Noroeste 20 Nordeste 0 -- -- 29
2019-05-30 13:00:00 26.3 8 Este 21 Sudeste 0 -- -- 31
2019-05-30 12:00:00 24 9 Norte 25 Nordeste 0 -- -- 35
2019-05-30 11:00:00 21.5 10 Nordeste 21 Nordeste 0 -- -- 40
2019-05-30 10:00:00 19.7 12 Nordeste 20 Nordeste 0 -- -- 44
2019-05-30 09:00:00 17 10 Nordeste 16 Nordeste 0 -- -- 48
2019-05-30 08:00:00 14 9 Nordeste 21 Nordeste 0 -- -- 55
2019-05-30 07:00:00 11.9 15 Nordeste 19 Nordeste 0 -- -- 60
2019-05-30 06:00:00 11.2 9 Nordeste 13 Nordeste 0 -- -- 63
2019-05-30 05:00:00 11.6 9 Nordeste 12 Nordeste 0 -- -- 62
2019-05-30 04:00:00 11.4 7 Nordeste 11 Nordeste 0 -- -- 63
2019-05-30 03:00:00 12 9 Este 12 Este 0 -- -- 60
2019-05-30 02:00:00 13.2 2 Sudeste 14 Nordeste 0 -- -- 56
2019-05-30 01:00:00 15.4 6 Nordeste 16 Nordeste 0 -- -- 50
2019-05-30 00:00:00 17 11 Este 21 Este 0 -- -- 46
2019-05-29 23:00:00 19 12 Este 22 Nordeste 0 -- -- 42
2019-05-29 22:00:00 20.9 13 Este 27 Este 0 -- -- 40
2019-05-29 21:00:00 24.6 16 Nordeste 32 Nordeste 0 -- -- 33
2019-05-29 20:00:00 26.5 17 Nordeste 30 Este 0 -- -- 28
2019-05-29 19:00:00 27.2 18 Nordeste 32 Nordeste 0 -- -- 28
2019-05-29 18:00:00 27.2 16 Este 31 Nordeste 0 -- -- 28
2019-05-29 17:00:00 26.7 18 Nordeste 30 Nordeste 0 -- -- 30
2019-05-29 16:00:00 25.7 17 Este 36 Nordeste 0 -- -- 31
2019-05-29 15:00:00 24.3 13 Nordeste 35 Nordeste 0 -- -- 33
2019-05-29 14:00:00 22.9 22 Nordeste 36 Este 0 -- -- 34
2019-05-29 13:00:00 21.2 20 Nordeste 37 Nordeste 0 -- -- 36
2019-05-29 12:00:00 19.7 23 Nordeste 41 Nordeste 0 -- -- 38
2019-05-29 11:00:00 17.6 28 Nordeste 43 Nordeste 0 -- -- 41
2019-05-29 10:00:00 16 25 Nordeste 37 Nordeste 0 -- -- 44
2019-05-29 09:00:00 13.3 15 Nordeste 25 Este 0 -- -- 52
2019-05-29 08:00:00 11.2 14 Nordeste 26 Nordeste 0 -- -- 57
2019-05-29 07:00:00 9.5 15 Nordeste 26 Nordeste 0 -- -- 60
2019-05-29 06:00:00 10.5 19 Nordeste 32 Nordeste 0 -- -- 56
2019-05-29 05:00:00 10.2 7 Este 21 Nordeste 0 -- -- 58
2019-05-29 04:00:00 10.6 13 Nordeste 21 Nordeste 0 -- -- 57
2019-05-29 03:00:00 11.2 11 Nordeste 26 Este 0 -- -- 56
2019-05-29 02:00:00 12.6 19 Este 31 Nordeste 0 -- -- 51
2019-05-29 01:00:00 13.7 16 Nordeste 25 Nordeste 0 -- -- 49
2019-05-29 00:00:00 14.8 13 Nordeste 30 Nordeste 0 -- -- 47
2019-05-28 23:00:00 17.1 17 Nordeste 40 Nordeste 0 -- -- 41
2019-05-28 22:00:00 19.2 30 Nordeste 45 Nordeste 0 -- -- 32
2019-05-28 21:00:00 21.2 20 Nordeste 41 Nordeste 0 -- -- 27
2019-05-28 20:00:00 23.2 27 Nordeste 40 Norte 0 -- -- 23
2019-05-28 19:00:00 24.6 25 Norte 40 Noroeste 0 -- -- 27
2019-05-28 18:00:00 26.2 22 Norte 36 Noroeste 0 -- -- 22
2019-05-28 17:00:00 26.6 9 Nordeste 27 Nordeste 0 -- -- 25
2019-05-28 16:00:00 25.7 11 Este 29 Nordeste 0 -- -- 27
2019-05-28 15:00:00 24.9 8 Este 28 Nordeste 0 -- -- 27
2019-05-28 14:00:00 23.9 13 Nordeste 25 Nordeste 0 -- -- 28
2019-05-28 13:00:00 22.9 17 Nordeste 28 Nordeste 0 -- -- 28
2019-05-28 12:00:00 20.8 18 Nordeste 28 Nordeste 0 -- -- 35
2019-05-28 11:00:00 19.3 12 Nordeste 26 Nordeste 0 -- -- 40
2019-05-28 10:00:00 16.9 16 Nordeste 25 Nordeste 0 -- -- 44
2019-05-28 09:00:00 14.6 14 Nordeste 21 Este 0 -- -- 51
2019-05-28 08:00:00 12.3 11 Nordeste 16 Nordeste 0 -- -- 66
2019-05-28 07:00:00 11.1 9 Nordeste 23 Nordeste 0 -- -- 73
2019-05-28 06:00:00 11.4 13 Nordeste 21 Este 0 -- -- 73
2019-05-28 05:00:00 12.3 13 Este 20 Este 0 -- -- 71
2019-05-28 04:00:00 13.5 10 Este 26 Nordeste 0 -- -- 67
2019-05-28 03:00:00 14.3 12 Nordeste 21 Este 0 -- -- 65
2019-05-28 02:00:00 15.8 14 Este 31 Nordeste 0 -- -- 59
2019-05-28 01:00:00 17.2 18 Nordeste 35 Este 0 -- -- 54
2019-05-28 00:00:00 18.7 19 Nordeste 27 Nordeste 0 -- -- 51
2019-05-27 23:00:00 19.8 11 Este 29 Nordeste 0 -- -- 49
2019-05-27 22:00:00 22.9 20 Nordeste 33 Norte 0 -- -- 42
2019-05-27 21:00:00 25.1 14 Norte 31 Norte 0 -- -- 33
2019-05-27 20:00:00 27.1 13 Norte 31 Norte 0 -- -- 30
2019-05-27 19:00:00 27.9 14 Norte 26 Norte 0 -- -- 28
2019-05-27 18:00:00 28 14 Norte 29 Norte 0 -- -- 28
2019-05-27 17:00:00 28.2 15 Norte 34 Norte 0 -- -- 28
2019-05-27 16:00:00 28.2 15 Norte 28 Norte 0 -- -- 29
2019-05-27 15:00:00 26.9 13 Norte 25 Noroeste 0 -- -- 31
2019-05-27 14:00:00 27.1 8 Norte 23 Oeste 0 -- -- 30
2019-05-27 13:00:00 25.9 10 Oeste 21 Oeste 0 -- -- 34
2019-05-27 12:00:00 23.2 7 Oeste 14 Oeste 0 -- -- 38
2019-05-27 11:00:00 21.4 4 Sudoeste 13 Oeste 0 -- -- 43
2019-05-27 10:00:00 17.6 4 Este 12 Este 0 -- -- 53
2019-05-27 09:00:00 14.1 5 Este 8 Nordeste 0 -- -- 65
2019-05-27 08:00:00 11.4 5 Este 14 Nordeste 0 -- -- 74
2019-05-27 07:00:00 9.6 7 Nordeste 9 Nordeste 0 -- -- 79
2019-05-27 06:00:00 10 3 Este 10 Este 0 -- -- 76
2019-05-27 05:00:00 11.2 4 Este 13 Este 0 -- -- 73
2019-05-27 04:00:00 11.6 9 Nordeste 12 Este 0 -- -- 71
2019-05-27 03:00:00 13.1 0 Calma 19 Nordeste 0 -- -- 63
2019-05-27 02:00:00 14.3 8 Nordeste 13 Nordeste 0 -- -- 61
2019-05-27 01:00:00 14.6 8 Este 11 Este 0 -- -- 58
2019-05-27 00:00:00 16.8 5 Este 13 Este 0 -- -- 51